sensor_id;sensor_type;location;lat;lon;timestamp;temperature;humidity
26262;DHT22;13988;52.446;13.280;2022-10-16T00:01:12;14.50;99.90
26262;DHT22;13988;52.446;13.280;2022-10-16T00:03:39;14.40;99.90
26262;DHT22;13988;52.446;13.280;2022-10-16T00:06:07;14.40;99.90
26262;DHT22;13988;52.446;13.280;2022-10-16T00:08:33;14.50;99.90
26262;DHT22;13988;52.446;13.280;2022-10-16T00:11:07;14.50;99.90
26262;DHT22;13988;52.446;13.280;2022-10-16T00:13:35;14.50;99.90
26262;DHT22;13988;52.446;13.280;2022-10-16T00:16:02;14.40;99.90
26262;DHT22;13988;52.446;13.280;2022-10-16T00:18:28;14.50;99.90
26262;DHT22;13988;52.446;13.280;2022-10-16T00:20:54;14.50;99.90
26262;DHT22;13988;52.446;13.280;2022-10-16T00:23:20;14.60;99.90
26262;DHT22;13988;52.446;13.280;2022-10-16T00:25:55;14.60;99.90
26262;DHT22;13988;52.446;13.280;2022-10-16T00:28:21;14.60;99.90
26262;DHT22;13988;52.446;13.280;2022-10-16T00:30:46;14.60;99.90
26262;DHT22;13988;52.446;13.280;2022-10-16T00:33:12;14.60;99.90
26262;DHT22;13988;52.446;13.280;2022-10-16T00:35:37;14.70;99.90
26262;DHT22;13988;52.446;13.280;2022-10-16T00:38:03;14.70;99.90
26262;DHT22;13988;52.446;13.280;2022-10-16T00:40:28;14.80;99.90
26262;DHT22;13988;52.446;13.280;2022-10-16T00:42:54;14.70;99.90
26262;DHT22;13988;52.446;13.280;2022-10-16T00:45:20;14.70;99.90
26262;DHT22;13988;52.446;13.280;2022-10-16T00:47:46;14.70;99.90
26262;DHT22;13988;52.446;13.280;2022-10-16T00:50:32;14.70;99.90
26262;DHT22;13988;52.446;13.280;2022-10-16T00:52:59;14.70;99.90
26262;DHT22;13988;52.446;13.280;2022-10-16T00:55:26;14.70;99.90
26262;DHT22;13988;52.446;13.280;2022-10-16T00:57:54;14.70;99.90
26262;DHT22;13988;52.446;13.280;2022-10-16T01:00:22;14.70;99.90
26262;DHT22;13988;52.446;13.280;2022-10-16T01:02:59;14.60;99.90
26262;DHT22;13988;52.446;13.280;2022-10-16T01:05:42;14.50;99.90
26262;DHT22;13988;52.446;13.280;2022-10-16T01:08:17;14.50;99.90
26262;DHT22;13988;52.446;13.280;2022-10-16T01:10:52;14.50;99.90
26262;DHT22;13988;52.446;13.280;2022-10-16T01:13:21;14.40;99.90
26262;DHT22;13988;52.446;13.280;2022-10-16T01:15:59;14.40;99.90
26262;DHT22;13988;52.446;13.280;2022-10-16T01:18:35;14.30;99.90
26262;DHT22;13988;52.446;13.280;2022-10-16T01:21:06;14.40;99.90
26262;DHT22;13988;52.446;13.280;2022-10-16T01:23:37;14.40;99.90
26262;DHT22;13988;52.446;13.280;2022-10-16T01:26:18;14.40;99.90
26262;DHT22;13988;52.446;13.280;2022-10-16T01:28:58;14.40;99.90
26262;DHT22;13988;52.446;13.280;2022-10-16T01:31:31;14.30;99.90
26262;DHT22;13988;52.446;13.280;2022-10-16T01:34:05;14.30;99.90
26262;DHT22;13988;52.446;13.280;2022-10-16T01:36:43;14.20;99.90
26262;DHT22;13988;52.446;13.280;2022-10-16T01:39:10;14.30;99.90
26262;DHT22;13988;52.446;13.280;2022-10-16T01:41:41;14.20;99.90
26262;DHT22;13988;52.446;13.280;2022-10-16T01:44:11;14.20;99.90
26262;DHT22;13988;52.446;13.280;2022-10-16T01:46:43;14.10;99.90
26262;DHT22;13988;52.446;13.280;2022-10-16T01:49:09;14.00;99.90
26262;DHT22;13988;52.446;13.280;2022-10-16T01:51:36;14.00;99.90
26262;DHT22;13988;52.446;13.280;2022-10-16T01:54:04;14.00;99.90
26262;DHT22;13988;52.446;13.280;2022-10-16T01:56:31;13.90;99.90
26262;DHT22;13988;52.446;13.280;2022-10-16T01:59:02;14.00;99.90
26262;DHT22;13988;52.446;13.280;2022-10-16T02:01:32;14.00;99.90
26262;DHT22;13988;52.446;13.280;2022-10-16T02:04:09;14.10;99.90
26262;DHT22;13988;52.446;13.280;2022-10-16T02:06:38;14.20;99.90
26262;DHT22;13988;52.446;13.280;2022-10-16T02:09:04;14.10;99.90
26262;DHT22;13988;52.446;13.280;2022-10-16T02:11:29;14.30;99.90
26262;DHT22;13988;52.446;13.280;2022-10-16T02:14:06;14.30;99.90
26262;DHT22;13988;52.446;13.280;2022-10-16T02:16:43;14.30;99.90
26262;DHT22;13988;52.446;13.280;2022-10-16T02:19:09;14.30;99.90
26262;DHT22;13988;52.446;13.280;2022-10-16T02:21:46;14.40;99.90
26262;DHT22;13988;52.446;13.280;2022-10-16T02:27:01;14.40;99.90
26262;DHT22;13988;52.446;13.280;2022-10-16T02:29:28;14.40;99.90
26262;DHT22;13988;52.446;13.280;2022-10-16T02:32:01;14.40;99.90
26262;DHT22;13988;52.446;13.280;2022-10-16T02:34:30;14.30;99.90
26262;DHT22;13988;52.446;13.280;2022-10-16T02:36:57;14.40;99.90
26262;DHT22;13988;52.446;13.280;2022-10-16T02:39:24;14.40;99.90
26262;DHT22;13988;52.446;13.280;2022-10-16T02:41:50;14.40;99.90
26262;DHT22;13988;52.446;13.280;2022-10-16T02:44:15;14.40;99.90
26262;DHT22;13988;52.446;13.280;2022-10-16T02:46:41;14.30;99.90
26262;DHT22;13988;52.446;13.280;2022-10-16T02:49:06;14.30;99.90
26262;DHT22;13988;52.446;13.280;2022-10-16T02:51:32;14.30;99.90
26262;DHT22;13988;52.446;13.280;2022-10-16T02:53:57;14.20;99.90
26262;DHT22;13988;52.446;13.280;2022-10-16T02:56:23;14.20;99.90
26262;DHT22;13988;52.446;13.280;2022-10-16T02:58:49;14.20;99.90
26262;DHT22;13988;52.446;13.280;2022-10-16T03:01:15;14.20;99.90
26262;DHT22;13988;52.446;13.280;2022-10-16T03:03:42;14.10;99.90
26262;DHT22;13988;52.446;13.280;2022-10-16T03:06:07;14.00;99.90
26262;DHT22;13988;52.446;13.280;2022-10-16T03:08:33;14.00;99.90
26262;DHT22;13988;52.446;13.280;2022-10-16T03:10:59;14.00;99.90
26262;DHT22;13988;52.446;13.280;2022-10-16T03:13:24;13.90;99.90
26262;DHT22;13988;52.446;13.280;2022-10-16T03:15:50;13.90;99.90
26262;DHT22;13988;52.446;13.280;2022-10-16T03:18:15;13.90;99.90
26262;DHT22;13988;52.446;13.280;2022-10-16T03:20:43;13.90;99.90
26262;DHT22;13988;52.446;13.280;2022-10-16T03:23:08;13.80;99.90
26262;DHT22;13988;52.446;13.280;2022-10-16T03:25:34;13.80;99.90
26262;DHT22;13988;52.446;13.280;2022-10-16T03:28:00;13.80;99.90
26262;DHT22;13988;52.446;13.280;2022-10-16T03:30:25;13.80;99.90
26262;DHT22;13988;52.446;13.280;2022-10-16T03:32:51;13.70;99.90
26262;DHT22;13988;52.446;13.280;2022-10-16T03:35:23;13.70;99.90
26262;DHT22;13988;52.446;13.280;2022-10-16T03:37:49;13.50;99.90
26262;DHT22;13988;52.446;13.280;2022-10-16T03:40:15;13.50;99.90
26262;DHT22;13988;52.446;13.280;2022-10-16T03:42:44;13.50;99.90
26262;DHT22;13988;52.446;13.280;2022-10-16T03:45:10;13.50;99.90
26262;DHT22;13988;52.446;13.280;2022-10-16T03:47:36;13.50;99.90
26262;DHT22;13988;52.446;13.280;2022-10-16T03:50:03;13.50;99.90
26262;DHT22;13988;52.446;13.280;2022-10-16T03:52:28;13.50;99.90
26262;DHT22;13988;52.446;13.280;2022-10-16T03:54:54;13.60;99.90
26262;DHT22;13988;52.446;13.280;2022-10-16T03:57:19;13.40;99.90
26262;DHT22;13988;52.446;13.280;2022-10-16T03:59:46;13.50;99.90
26262;DHT22;13988;52.446;13.280;2022-10-16T04:02:11;13.40;99.90
26262;DHT22;13988;52.446;13.280;2022-10-16T04:04:37;13.40;99.90
26262;DHT22;13988;52.446;13.280;2022-10-16T04:07:02;13.40;99.90
26262;DHT22;13988;52.446;13.280;2022-10-16T04:09:28;13.50;99.90
26262;DHT22;13988;52.446;13.280;2022-10-16T04:11:54;13.50;99.90
26262;DHT22;13988;52.446;13.280;2022-10-16T04:14:19;13.60;99.90
26262;DHT22;13988;52.446;13.280;2022-10-16T04:16:45;13.60;99.90
26262;DHT22;13988;52.446;13.280;2022-10-16T04:19:11;13.60;99.90
26262;DHT22;13988;52.446;13.280;2022-10-16T04:21:37;13.50;99.90
26262;DHT22;13988;52.446;13.280;2022-10-16T04:24:03;13.50;99.90
26262;DHT22;13988;52.446;13.280;2022-10-16T04:26:28;13.50;99.90
26262;DHT22;13988;52.446;13.280;2022-10-16T04:28:54;13.50;99.90
26262;DHT22;13988;52.446;13.280;2022-10-16T04:31:20;13.40;99.90
26262;DHT22;13988;52.446;13.280;2022-10-16T04:33:46;13.40;99.90
26262;DHT22;13988;52.446;13.280;2022-10-16T04:36:12;13.40;99.90
26262;DHT22;13988;52.446;13.280;2022-10-16T04:38:37;13.40;99.90
26262;DHT22;13988;52.446;13.280;2022-10-16T04:41:05;13.30;99.90
26262;DHT22;13988;52.446;13.280;2022-10-16T04:43:30;13.20;99.90
26262;DHT22;13988;52.446;13.280;2022-10-16T04:45:56;13.30;99.90
26262;DHT22;13988;52.446;13.280;2022-10-16T04:48:22;13.30;99.90
26262;DHT22;13988;52.446;13.280;2022-10-16T04:50:48;13.20;99.90
26262;DHT22;13988;52.446;13.280;2022-10-16T04:53:13;13.20;99.90
26262;DHT22;13988;52.446;13.280;2022-10-16T04:55:39;13.20;99.90
26262;DHT22;13988;52.446;13.280;2022-10-16T04:58:06;13.10;99.90
26262;DHT22;13988;52.446;13.280;2022-10-16T05:00:32;13.10;99.90
26262;DHT22;13988;52.446;13.280;2022-10-16T05:02:57;13.10;99.90
26262;DHT22;13988;52.446;13.280;2022-10-16T05:05:24;13.10;99.90
26262;DHT22;13988;52.446;13.280;2022-10-16T05:07:50;13.10;99.90
26262;DHT22;13988;52.446;13.280;2022-10-16T05:10:16;13.10;99.90
26262;DHT22;13988;52.446;13.280;2022-10-16T05:12:41;13.10;99.90
26262;DHT22;13988;52.446;13.280;2022-10-16T05:15:07;13.10;99.90
26262;DHT22;13988;52.446;13.280;2022-10-16T05:17:33;13.10;99.90
26262;DHT22;13988;52.446;13.280;2022-10-16T05:19:59;13.10;99.90
26262;DHT22;13988;52.446;13.280;2022-10-16T05:22:24;13.10;99.90
26262;DHT22;13988;52.446;13.280;2022-10-16T05:24:50;13.10;99.90
26262;DHT22;13988;52.446;13.280;2022-10-16T05:27:16;13.10;99.90
26262;DHT22;13988;52.446;13.280;2022-10-16T05:29:47;13.10;99.90
26262;DHT22;13988;52.446;13.280;2022-10-16T05:32:17;13.10;99.90
26262;DHT22;13988;52.446;13.280;2022-10-16T05:34:43;13.10;99.90
26262;DHT22;13988;52.446;13.280;2022-10-16T05:37:09;13.10;99.90
26262;DHT22;13988;52.446;13.280;2022-10-16T05:39:36;13.10;99.90
26262;DHT22;13988;52.446;13.280;2022-10-16T05:42:02;13.20;99.90
26262;DHT22;13988;52.446;13.280;2022-10-16T05:44:28;13.10;99.90
26262;DHT22;13988;52.446;13.280;2022-10-16T05:46:53;13.20;99.90
26262;DHT22;13988;52.446;13.280;2022-10-16T05:49:19;13.20;99.90
26262;DHT22;13988;52.446;13.280;2022-10-16T05:51:44;13.20;99.90
26262;DHT22;13988;52.446;13.280;2022-10-16T05:54:10;13.20;99.90
26262;DHT22;13988;52.446;13.280;2022-10-16T05:56:36;13.10;99.90
26262;DHT22;13988;52.446;13.280;2022-10-16T05:59:03;13.20;99.90
26262;DHT22;13988;52.446;13.280;2022-10-16T06:01:29;13.10;99.90
26262;DHT22;13988;52.446;13.280;2022-10-16T06:03:56;13.10;99.90
26262;DHT22;13988;52.446;13.280;2022-10-16T06:06:24;13.10;99.90
26262;DHT22;13988;52.446;13.280;2022-10-16T06:08:52;13.10;99.90
26262;DHT22;13988;52.446;13.280;2022-10-16T06:11:21;13.10;99.90
26262;DHT22;13988;52.446;13.280;2022-10-16T06:13:55;13.20;99.90
26262;DHT22;13988;52.446;13.280;2022-10-16T06:16:26;13.30;99.90
26262;DHT22;13988;52.446;13.280;2022-10-16T06:18:52;13.30;99.90
26262;DHT22;13988;52.446;13.280;2022-10-16T06:21:21;13.30;99.90
26262;DHT22;13988;52.446;13.280;2022-10-16T06:23:47;13.40;99.90
26262;DHT22;13988;52.446;13.280;2022-10-16T06:26:16;13.40;99.90
26262;DHT22;13988;52.446;13.280;2022-10-16T06:28:42;13.40;99.90
26262;DHT22;13988;52.446;13.280;2022-10-16T06:31:09;13.40;99.90
26262;DHT22;13988;52.446;13.280;2022-10-16T06:33:36;13.50;99.90
26262;DHT22;13988;52.446;13.280;2022-10-16T06:36:13;13.50;99.90
26262;DHT22;13988;52.446;13.280;2022-10-16T06:38:40;13.60;99.90
26262;DHT22;13988;52.446;13.280;2022-10-16T06:41:07;13.60;99.90
26262;DHT22;13988;52.446;13.280;2022-10-16T06:43:33;13.60;99.90
26262;DHT22;13988;52.446;13.280;2022-10-16T06:46:03;13.70;99.90
26262;DHT22;13988;52.446;13.280;2022-10-16T06:48:30;13.70;99.90
26262;DHT22;13988;52.446;13.280;2022-10-16T06:53:22;13.70;99.90
26262;DHT22;13988;52.446;13.280;2022-10-16T06:55:47;13.70;99.90
26262;DHT22;13988;52.446;13.280;2022-10-16T06:58:13;13.80;99.90
26262;DHT22;13988;52.446;13.280;2022-10-16T07:00:38;13.90;99.90
26262;DHT22;13988;52.446;13.280;2022-10-16T07:03:04;13.90;99.90
26262;DHT22;13988;52.446;13.280;2022-10-16T07:05:29;14.10;99.90
26262;DHT22;13988;52.446;13.280;2022-10-16T07:07:55;14.20;99.90
26262;DHT22;13988;52.446;13.280;2022-10-16T07:10:20;14.30;99.90
26262;DHT22;13988;52.446;13.280;2022-10-16T07:12:49;14.60;99.90
26262;DHT22;13988;52.446;13.280;2022-10-16T07:15:15;14.70;99.90
26262;DHT22;13988;52.446;13.280;2022-10-16T07:17:40;14.70;99.90
26262;DHT22;13988;52.446;13.280;2022-10-16T07:20:06;14.80;99.90
26262;DHT22;13988;52.446;13.280;2022-10-16T07:22:32;14.80;99.90
26262;DHT22;13988;52.446;13.280;2022-10-16T07:24:58;14.90;99.90
26262;DHT22;13988;52.446;13.280;2022-10-16T07:27:24;15.10;99.90
26262;DHT22;13988;52.446;13.280;2022-10-16T07:29:50;15.30;99.90
26262;DHT22;13988;52.446;13.280;2022-10-16T07:32:15;15.30;99.90
26262;DHT22;13988;52.446;13.280;2022-10-16T07:34:41;15.40;99.90
26262;DHT22;13988;52.446;13.280;2022-10-16T07:37:07;15.40;99.90
26262;DHT22;13988;52.446;13.280;2022-10-16T07:39:33;15.40;99.90
26262;DHT22;13988;52.446;13.280;2022-10-16T07:41:59;15.40;99.90
26262;DHT22;13988;52.446;13.280;2022-10-16T07:44:24;15.30;99.90
26262;DHT22;13988;52.446;13.280;2022-10-16T07:46:50;15.30;99.90
26262;DHT22;13988;52.446;13.280;2022-10-16T07:49:15;15.40;99.90
26262;DHT22;13988;52.446;13.280;2022-10-16T07:51:41;15.40;99.90
26262;DHT22;13988;52.446;13.280;2022-10-16T07:54:08;15.40;99.90
26262;DHT22;13988;52.446;13.280;2022-10-16T07:56:34;15.40;99.90
26262;DHT22;13988;52.446;13.280;2022-10-16T07:58:59;15.40;99.90
26262;DHT22;13988;52.446;13.280;2022-10-16T08:01:25;15.50;99.90
26262;DHT22;13988;52.446;13.280;2022-10-16T08:03:51;15.60;99.90
26262;DHT22;13988;52.446;13.280;2022-10-16T08:06:18;15.60;99.90
26262;DHT22;13988;52.446;13.280;2022-10-16T08:08:44;15.70;99.90
26262;DHT22;13988;52.446;13.280;2022-10-16T08:11:09;15.80;99.90
26262;DHT22;13988;52.446;13.280;2022-10-16T08:13:36;15.90;99.90
26262;DHT22;13988;52.446;13.280;2022-10-16T08:16:02;15.90;99.90
26262;DHT22;13988;52.446;13.280;2022-10-16T08:18:33;16.00;99.90
26262;DHT22;13988;52.446;13.280;2022-10-16T08:20:59;16.10;99.90
26262;DHT22;13988;52.446;13.280;2022-10-16T08:23:26;16.10;99.90
26262;DHT22;13988;52.446;13.280;2022-10-16T08:25:56;16.10;99.90
26262;DHT22;13988;52.446;13.280;2022-10-16T08:28:26;16.20;99.90
26262;DHT22;13988;52.446;13.280;2022-10-16T08:30:52;16.20;99.90
26262;DHT22;13988;52.446;13.280;2022-10-16T08:33:17;16.30;99.90
26262;DHT22;13988;52.446;13.280;2022-10-16T08:35:49;16.30;99.90
26262;DHT22;13988;52.446;13.280;2022-10-16T08:38:15;16.30;99.90
26262;DHT22;13988;52.446;13.280;2022-10-16T08:40:42;16.30;99.90
26262;DHT22;13988;52.446;13.280;2022-10-16T08:46:26;16.30;99.90
26262;DHT22;13988;52.446;13.280;2022-10-16T08:48:54;16.30;99.90
26262;DHT22;13988;52.446;13.280;2022-10-16T08:51:24;16.40;99.90
26262;DHT22;13988;52.446;13.280;2022-10-16T08:53:56;16.40;99.90
26262;DHT22;13988;52.446;13.280;2022-10-16T08:56:23;16.40;99.90
26262;DHT22;13988;52.446;13.280;2022-10-16T08:58:50;16.40;99.90
26262;DHT22;13988;52.446;13.280;2022-10-16T09:01:18;16.40;99.90
26262;DHT22;13988;52.446;13.280;2022-10-16T09:09:43;16.60;99.90
26262;DHT22;13988;52.446;13.280;2022-10-16T09:12:27;16.80;99.90
26262;DHT22;13988;52.446;13.280;2022-10-16T09:15:24;16.80;99.90
26262;DHT22;13988;52.446;13.280;2022-10-16T09:18:15;17.00;99.90
26262;DHT22;13988;52.446;13.280;2022-10-16T09:20:56;17.10;99.90
26262;DHT22;13988;52.446;13.280;2022-10-16T09:23:28;17.20;99.90
26262;DHT22;13988;52.446;13.280;2022-10-16T09:25:56;17.20;99.90
26262;DHT22;13988;52.446;13.280;2022-10-16T09:28:23;17.30;99.90
26262;DHT22;13988;52.446;13.280;2022-10-16T09:30:49;17.20;99.90
26262;DHT22;13988;52.446;13.280;2022-10-16T09:33:17;17.10;99.90
26262;DHT22;13988;52.446;13.280;2022-10-16T09:35:45;17.10;99.90
26262;DHT22;13988;52.446;13.280;2022-10-16T09:38:29;17.20;99.90
26262;DHT22;13988;52.446;13.280;2022-10-16T09:41:00;17.20;99.90
26262;DHT22;13988;52.446;13.280;2022-10-16T09:43:41;17.30;99.90
26262;DHT22;13988;52.446;13.280;2022-10-16T09:46:30;17.60;99.90
26262;DHT22;13988;52.446;13.280;2022-10-16T09:49:23;17.50;99.90
26262;DHT22;13988;52.446;13.280;2022-10-16T09:51:49;17.40;99.90
26262;DHT22;13988;52.446;13.280;2022-10-16T09:54:19;17.30;99.90
26262;DHT22;13988;52.446;13.280;2022-10-16T09:56:45;17.40;99.90
26262;DHT22;13988;52.446;13.280;2022-10-16T09:59:16;17.40;99.90
26262;DHT22;13988;52.446;13.280;2022-10-16T10:01:50;17.70;99.90
26262;DHT22;13988;52.446;13.280;2022-10-16T10:04:20;17.70;99.90
26262;DHT22;13988;52.446;13.280;2022-10-16T10:06:46;17.90;99.90
26262;DHT22;13988;52.446;13.280;2022-10-16T10:11:56;18.10;99.90
26262;DHT22;13988;52.446;13.280;2022-10-16T10:19:51;18.40;99.90
26262;DHT22;13988;52.446;13.280;2022-10-16T10:30:44;18.30;99.90
26262;DHT22;13988;52.446;13.280;2022-10-16T10:41:36;18.30;99.90
26262;DHT22;13988;52.446;13.280;2022-10-16T10:52:58;18.40;99.90
26262;DHT22;13988;52.446;13.280;2022-10-16T10:55:39;18.50;99.90
26262;DHT22;13988;52.446;13.280;2022-10-16T11:01:38;18.60;99.90
26262;DHT22;13988;52.446;13.280;2022-10-16T11:07:13;18.60;99.90
26262;DHT22;13988;52.446;13.280;2022-10-16T11:09:47;19.10;99.90
26262;DHT22;13988;52.446;13.280;2022-10-16T11:12:34;19.50;99.90
26262;DHT22;13988;52.446;13.280;2022-10-16T11:15:30;19.60;99.90
26262;DHT22;13988;52.446;13.280;2022-10-16T11:18:19;19.60;99.90
26262;DHT22;13988;52.446;13.280;2022-10-16T11:20:53;19.60;99.90
26262;DHT22;13988;52.446;13.280;2022-10-16T11:24:08;19.50;99.90
26262;DHT22;13988;52.446;13.280;2022-10-16T11:26:27;19.30;99.90
26262;DHT22;13988;52.446;13.280;2022-10-16T11:28:55;19.20;99.90
26262;DHT22;13988;52.446;13.280;2022-10-16T11:34:22;19.30;99.90
26262;DHT22;13988;52.446;13.280;2022-10-16T11:39:27;19.50;99.90
26262;DHT22;13988;52.446;13.280;2022-10-16T11:42:21;19.50;99.90
26262;DHT22;13988;52.446;13.280;2022-10-16T11:45:02;19.60;99.90
26262;DHT22;13988;52.446;13.280;2022-10-16T11:48:21;19.30;99.90
26262;DHT22;13988;52.446;13.280;2022-10-16T11:50:56;19.40;99.90
26262;DHT22;13988;52.446;13.280;2022-10-16T11:53:53;19.20;99.90
26262;DHT22;13988;52.446;13.280;2022-10-16T11:56:22;19.00;99.90
26262;DHT22;13988;52.446;13.280;2022-10-16T11:59:02;19.20;99.90
26262;DHT22;13988;52.446;13.280;2022-10-16T12:01:33;19.40;99.90
26262;DHT22;13988;52.446;13.280;2022-10-16T12:09:28;19.30;99.90
26262;DHT22;13988;52.446;13.280;2022-10-16T12:11:55;19.10;99.90
26262;DHT22;13988;52.446;13.280;2022-10-16T12:17:42;19.70;99.90
26262;DHT22;13988;52.446;13.280;2022-10-16T12:22:50;25.60;99.90
26262;DHT22;13988;52.446;13.280;2022-10-16T12:25:22;25.80;99.90
26262;DHT22;13988;52.446;13.280;2022-10-16T12:28:00;25.70;99.00
26262;DHT22;13988;52.446;13.280;2022-10-16T12:30:28;25.20;99.80
26262;DHT22;13988;52.446;13.280;2022-10-16T12:32:56;25.00;99.90
26262;DHT22;13988;52.446;13.280;2022-10-16T12:35:34;24.10;98.70
26262;DHT22;13988;52.446;13.280;2022-10-16T12:38:16;23.70;99.70
26262;DHT22;13988;52.446;13.280;2022-10-16T12:40:43;24.30;99.50
26262;DHT22;13988;52.446;13.280;2022-10-16T12:46:05;24.40;95.90
26262;DHT22;13988;52.446;13.280;2022-10-16T12:48:31;24.60;95.90
26262;DHT22;13988;52.446;13.280;2022-10-16T12:50:57;24.30;95.60
26262;DHT22;13988;52.446;13.280;2022-10-16T12:53:25;23.70;96.60
26262;DHT22;13988;52.446;13.280;2022-10-16T12:56:24;24.40;95.60
26262;DHT22;13988;52.446;13.280;2022-10-16T13:02:06;25.60;95.00
26262;DHT22;13988;52.446;13.280;2022-10-16T13:05:12;25.50;91.90
26262;DHT22;13988;52.446;13.280;2022-10-16T13:21:27;19.90;99.90
26262;DHT22;13988;52.446;13.280;2022-10-16T13:29:38;19.50;99.90
26262;DHT22;13988;52.446;13.280;2022-10-16T13:32:11;19.60;99.90
26262;DHT22;13988;52.446;13.280;2022-10-16T13:34:48;19.70;99.90
26262;DHT22;13988;52.446;13.280;2022-10-16T13:37:25;19.60;99.90
26262;DHT22;13988;52.446;13.280;2022-10-16T13:40:06;20.20;99.90
26262;DHT22;13988;52.446;13.280;2022-10-16T13:42:37;19.80;99.90
26262;DHT22;13988;52.446;13.280;2022-10-16T13:45:02;20.20;99.90
26262;DHT22;13988;52.446;13.280;2022-10-16T13:47:29;20.00;99.90
26262;DHT22;13988;52.446;13.280;2022-10-16T13:50:05;19.60;99.90
26262;DHT22;13988;52.446;13.280;2022-10-16T13:52:31;19.40;99.90
26262;DHT22;13988;52.446;13.280;2022-10-16T13:54:57;19.50;99.90
26262;DHT22;13988;52.446;13.280;2022-10-16T13:57:24;19.70;99.90
26262;DHT22;13988;52.446;13.280;2022-10-16T13:59:50;19.80;99.90
26262;DHT22;13988;52.446;13.280;2022-10-16T14:02:36;19.90;99.90
26262;DHT22;13988;52.446;13.280;2022-10-16T14:05:04;19.70;99.90
26262;DHT22;13988;52.446;13.280;2022-10-16T14:07:34;19.60;99.90
26262;DHT22;13988;52.446;13.280;2022-10-16T14:10:06;19.70;99.90
26262;DHT22;13988;52.446;13.280;2022-10-16T14:12:32;19.60;99.90
26262;DHT22;13988;52.446;13.280;2022-10-16T14:14:59;19.70;99.90
26262;DHT22;13988;52.446;13.280;2022-10-16T14:19:55;19.40;99.90
26262;DHT22;13988;52.446;13.280;2022-10-16T14:22:39;19.30;99.90
26262;DHT22;13988;52.446;13.280;2022-10-16T14:27:57;19.10;99.90
26262;DHT22;13988;52.446;13.280;2022-10-16T14:30:23;19.10;99.90
26262;DHT22;13988;52.446;13.280;2022-10-16T14:33:00;19.10;99.90
26262;DHT22;13988;52.446;13.280;2022-10-16T14:35:30;19.10;99.90
26262;DHT22;13988;52.446;13.280;2022-10-16T14:37:57;19.20;99.90
26262;DHT22;13988;52.446;13.280;2022-10-16T14:40:26;19.20;99.90
26262;DHT22;13988;52.446;13.280;2022-10-16T14:42:52;19.20;99.90
26262;DHT22;13988;52.446;13.280;2022-10-16T14:45:23;19.20;99.90
26262;DHT22;13988;52.446;13.280;2022-10-16T14:47:57;19.20;99.90
26262;DHT22;13988;52.446;13.280;2022-10-16T14:50:24;19.20;99.90
26262;DHT22;13988;52.446;13.280;2022-10-16T14:52:50;19.20;99.90
26262;DHT22;13988;52.446;13.280;2022-10-16T14:55:16;19.10;99.90
26262;DHT22;13988;52.446;13.280;2022-10-16T14:57:43;18.90;99.90
26262;DHT22;13988;52.446;13.280;2022-10-16T15:00:21;18.80;99.90
26262;DHT22;13988;52.446;13.280;2022-10-16T15:02:49;18.70;99.90
26262;DHT22;13988;52.446;13.280;2022-10-16T15:05:17;18.70;99.90
26262;DHT22;13988;52.446;13.280;2022-10-16T15:07:44;18.50;99.90
26262;DHT22;13988;52.446;13.280;2022-10-16T15:10:12;18.60;99.90
26262;DHT22;13988;52.446;13.280;2022-10-16T15:12:38;18.50;99.90
26262;DHT22;13988;52.446;13.280;2022-10-16T15:17:49;18.20;99.90
26262;DHT22;13988;52.446;13.280;2022-10-16T15:20:17;18.10;99.90
26262;DHT22;13988;52.446;13.280;2022-10-16T15:22:43;18.10;99.90
26262;DHT22;13988;52.446;13.280;2022-10-16T15:25:44;17.90;99.90
26262;DHT22;13988;52.446;13.280;2022-10-16T15:28:10;17.70;99.90
26262;DHT22;13988;52.446;13.280;2022-10-16T15:30:36;17.60;99.90
26262;DHT22;13988;52.446;13.280;2022-10-16T15:33:03;17.40;99.90
26262;DHT22;13988;52.446;13.280;2022-10-16T15:35:28;17.20;99.90
26262;DHT22;13988;52.446;13.280;2022-10-16T15:37:54;17.00;99.90
26262;DHT22;13988;52.446;13.280;2022-10-16T15:40:21;17.00;99.90
26262;DHT22;13988;52.446;13.280;2022-10-16T15:42:48;16.90;99.90
26262;DHT22;13988;52.446;13.280;2022-10-16T15:45:14;17.00;99.90
26262;DHT22;13988;52.446;13.280;2022-10-16T15:47:43;16.80;99.90
26262;DHT22;13988;52.446;13.280;2022-10-16T15:50:13;16.70;99.90
26262;DHT22;13988;52.446;13.280;2022-10-16T15:52:39;16.50;99.90
26262;DHT22;13988;52.446;13.280;2022-10-16T15:55:09;16.40;99.90
26262;DHT22;13988;52.446;13.280;2022-10-16T15:57:36;16.40;99.90
26262;DHT22;13988;52.446;13.280;2022-10-16T16:00:12;16.30;99.90
26262;DHT22;13988;52.446;13.280;2022-10-16T16:02:38;16.10;99.90
26262;DHT22;13988;52.446;13.280;2022-10-16T16:05:04;16.00;99.90
26262;DHT22;13988;52.446;13.280;2022-10-16T16:07:38;16.00;99.90
26262;DHT22;13988;52.446;13.280;2022-10-16T16:10:07;15.70;99.90
26262;DHT22;13988;52.446;13.280;2022-10-16T16:12:33;15.60;99.90
26262;DHT22;13988;52.446;13.280;2022-10-16T16:14:59;15.50;99.90
26262;DHT22;13988;52.446;13.280;2022-10-16T16:17:24;15.50;99.90
26262;DHT22;13988;52.446;13.280;2022-10-16T16:19:50;15.30;99.90
26262;DHT22;13988;52.446;13.280;2022-10-16T16:22:17;15.30;99.90
26262;DHT22;13988;52.446;13.280;2022-10-16T16:24:42;15.00;99.90
26262;DHT22;13988;52.446;13.280;2022-10-16T16:27:08;14.90;99.90
26262;DHT22;13988;52.446;13.280;2022-10-16T16:29:34;14.90;99.90
26262;DHT22;13988;52.446;13.280;2022-10-16T16:32:00;14.90;99.90
26262;DHT22;13988;52.446;13.280;2022-10-16T16:34:28;15.00;99.90
26262;DHT22;13988;52.446;13.280;2022-10-16T16:36:55;14.90;99.90
26262;DHT22;13988;52.446;13.280;2022-10-16T16:39:21;14.60;99.90
26262;DHT22;13988;52.446;13.280;2022-10-16T16:41:47;14.50;99.90
26262;DHT22;13988;52.446;13.280;2022-10-16T16:44:13;14.50;99.90
26262;DHT22;13988;52.446;13.280;2022-10-16T16:46:40;14.40;99.90
26262;DHT22;13988;52.446;13.280;2022-10-16T16:49:06;14.30;99.90
26262;DHT22;13988;52.446;13.280;2022-10-16T16:51:32;14.10;99.90
26262;DHT22;13988;52.446;13.280;2022-10-16T16:53:58;14.20;99.90
26262;DHT22;13988;52.446;13.280;2022-10-16T16:56:25;14.20;99.90
26262;DHT22;13988;52.446;13.280;2022-10-16T16:58:53;14.20;99.90
26262;DHT22;13988;52.446;13.280;2022-10-16T17:01:21;14.10;99.90
26262;DHT22;13988;52.446;13.280;2022-10-16T17:03:48;14.00;99.90
26262;DHT22;13988;52.446;13.280;2022-10-16T17:06:15;13.80;99.90
26262;DHT22;13988;52.446;13.280;2022-10-16T17:08:42;13.60;99.90
26262;DHT22;13988;52.446;13.280;2022-10-16T17:11:13;13.60;99.90
26262;DHT22;13988;52.446;13.280;2022-10-16T17:13:39;13.70;99.90